nws-alerts: Checking more than four warning/county codes can delay the loading of your pages. You should use a cron job to get the data.
EllijayWeather Station Historical Data
Daily Summary for February 1, 2019 Units:  English    Metric   Both
Daily Weekly Monthly Yearly Custom
  High: Low: Average:
Temperature: 57.7 °F 25.5 °F 39.6 °F
Dew Point: 30.7 °F 20.1 °F 25 °F
Humidity: 88% 26% 61%
Wind Speed: 4.0mph 0.0mph 0.1mph
Wind Gust: 4.0mph - -
Wind- - ESE
Pressure: 30.45 in 30.34 in -
Precipitation: 0.00 in    
Historical Graphs
 
 
Tabular Data for February 1, 2019
Time Temperature Dew Point Pressure Wind Wind Speed Wind Gust Humidity Rainfall Rate (Hourly) solar
00:04 27.3 °F 21.7 °F 30.42 in Calm     79% 0.00 in meteobridge W/m2
00:09 27.3 °F 21.7 °F 30.42 in Calm     79% 0.00 in meteobridge W/m2
00:14 27.1 °F 21.2 °F 30.42 in Calm     78% 0.00 in meteobridge W/m2
00:19 27.1 °F 21.6 °F 30.42 in Calm     79% 0.00 in meteobridge W/m2
00:24 27.1 °F 21.6 °F 30.42 in Calm     79% 0.00 in meteobridge W/m2
00:29 27.1 °F 21.2 °F 30.42 in Calm     78% 0.00 in meteobridge W/m2
00:34 27.1 °F 21.6 °F 30.42 in Calm     79% 0.00 in meteobridge W/m2
00:39 27.1 °F 21.6 °F 30.41 in Calm     79% 0.00 in meteobridge W/m2
00:44 27.3 °F 21.7 °F 30.41 in Calm     79% 0.00 in meteobridge W/m2
00:49 27.3 °F 21.7 °F 30.41 in Calm     79% 0.00 in meteobridge W/m2
00:54 27.3 °F 21.9 °F 30.41 in Calm     80% 0.00 in meteobridge W/m2
00:59 27.7 °F 22.6 °F 30.41 in Calm     81% 0.00 in meteobridge W/m2
01:04 27.9 °F 22.8 °F 30.41 in Calm     81% 0.00 in meteobridge W/m2
01:09 28.0 °F 23.0 °F 30.41 in Calm     81% 0.00 in meteobridge W/m2
01:14 28.2 °F 23.2 °F 30.41 in Calm     81% 0.00 in meteobridge W/m2
01:19 28.2 °F 22.8 °F 30.42 in Calm     80% 0.00 in meteobridge W/m2
01:24 28.4 °F 23.0 °F 30.42 in Calm     80% 0.00 in meteobridge W/m2
01:29 28.6 °F 23.2 °F 30.42 in Calm     80% 0.00 in meteobridge W/m2
01:34 28.8 °F 23.7 °F 30.42 in Calm     81% 0.00 in meteobridge W/m2
01:39 28.9 °F 23.9 °F 30.42 in Calm     81% 0.00 in meteobridge W/m2
01:44 28.9 °F 23.5 °F 30.42 in Calm     80% 0.00 in meteobridge W/m2
01:49 29.1 °F 23.7 °F 30.42 in Calm     80% 0.00 in meteobridge W/m2
01:54 29.3 °F 23.9 °F 30.42 in Calm     80% 0.00 in meteobridge W/m2
01:59 29.5 °F 24.1 °F 30.41 in Calm     80% 0.00 in meteobridge W/m2
02:04 29.5 °F 24.1 °F 30.42 in Calm     80% 0.00 in meteobridge W/m2
02:09 29.7 °F 24.3 °F 30.42 in Calm     80% 0.00 in meteobridge W/m2
02:14 29.7 °F 24.3 °F 30.42 in Calm     80% 0.00 in meteobridge W/m2
02:19 29.8 °F 24.4 °F 30.42 in Calm     80% 0.00 in meteobridge W/m2
02:24 29.8 °F 24.4 °F 30.43 in Calm     80% 0.00 in meteobridge W/m2
02:28 30.0 °F 24.6 °F 30.42 in Calm   1.0 mph 80% 0.00 in meteobridge W/m2
02:34 30.0 °F 24.6 °F 30.42 in Calm     80% 0.00 in meteobridge W/m2
02:39 30.2 °F 24.8 °F 30.42 in Calm     80% 0.00 in meteobridge W/m2
02:44 30.2 °F 24.8 °F 30.42 in Calm     80% 0.00 in meteobridge W/m2
02:49 30.4 °F 25.0 °F 30.42 in Calm     80% 0.00 in meteobridge W/m2
02:54 30.4 °F 25.0 °F 30.42 in Calm     80% 0.00 in meteobridge W/m2
02:59 30.2 °F 24.8 °F 30.42 in Calm     80% 0.00 in meteobridge W/m2
03:04 30.0 °F 24.3 °F 30.42 in Calm     79% 0.00 in meteobridge W/m2
03:09 30.0 °F 24.3 °F 30.42 in Calm     79% 0.00 in meteobridge W/m2
03:14 30.0 °F 24.6 °F 30.42 in Calm     80% 0.00 in meteobridge W/m2
03:19 29.8 °F 24.4 °F 30.42 in Calm     80% 0.00 in meteobridge W/m2
03:24 29.8 °F 24.4 °F 30.42 in Calm     80% 0.00 in meteobridge W/m2
03:29 29.8 °F 24.4 °F 30.42 in Calm     80% 0.00 in meteobridge W/m2
03:34 29.7 °F 24.3 °F 30.43 in Calm     80% 0.00 in meteobridge W/m2
03:39 29.7 °F 24.3 °F 30.42 in Calm     80% 0.00 in meteobridge W/m2
03:44 29.7 °F 24.3 °F 30.42 in Calm     80% 0.00 in meteobridge W/m2
03:49 29.5 °F 24.1 °F 30.42 in Calm     80% 0.00 in meteobridge W/m2
03:53 29.5 °F 23.7 °F 30.41 in Calm     79% 0.00 in meteobridge W/m2
03:59 29.3 °F 23.5 °F 30.41 in Calm     79% 0.00 in meteobridge W/m2
04:04 29.1 °F 23.7 °F 30.41 in Calm     80% 0.00 in meteobridge W/m2
04:09 28.9 °F 23.5 °F 30.40 in Calm     80% 0.00 in meteobridge W/m2
04:14 28.8 °F 23.4 °F 30.40 in Calm     80% 0.00 in meteobridge W/m2
04:19 28.6 °F 23.2 °F 30.40 in Calm     80% 0.00 in meteobridge W/m2
04:24 28.6 °F 23.2 °F 30.40 in Calm     80% 0.00 in meteobridge W/m2
04:29 28.4 °F 23.0 °F 30.40 in Calm     80% 0.00 in meteobridge W/m2
04:34 28.2 °F 22.8 °F 30.40 in Calm     80% 0.00 in meteobridge W/m2
04:39 28.0 °F 23.0 °F 30.40 in Calm     81% 0.00 in meteobridge W/m2
04:44 27.9 °F 22.8 °F 30.40 in Calm     81% 0.00 in meteobridge W/m2
04:49 27.7 °F 22.8 °F 30.40 in Calm     82% 0.00 in meteobridge W/m2
04:54 27.7 °F 22.8 °F 30.40 in Calm     82% 0.00 in meteobridge W/m2
04:59 27.3 °F 22.6 °F 30.39 in Calm     82% 0.00 in meteobridge W/m2
05:04 27.3 °F 22.8 °F 30.39 in Calm     83% 0.00 in meteobridge W/m2
05:09 27.1 °F 22.6 °F 30.39 in Calm     83% 0.00 in meteobridge W/m2
05:14 27.0 °F 22.5 °F 30.39 in Calm     83% 0.00 in meteobridge W/m2
05:19 27.0 °F 22.5 °F 30.39 in Calm     83% 0.00 in meteobridge W/m2
05:24 27.0 °F 22.8 °F 30.39 in Calm     84% 0.00 in meteobridge W/m2
05:29 27.0 °F 22.8 °F 30.40 in Calm     84% 0.00 in meteobridge W/m2
05:34 27.0 °F 22.8 °F 30.40 in Calm     84% 0.00 in meteobridge W/m2
05:39 27.0 °F 22.8 °F 30.40 in Calm     84% 0.00 in meteobridge W/m2
05:44 26.8 °F 22.6 °F 30.41 in Calm     84% 0.00 in meteobridge W/m2
05:49 26.8 °F 22.6 °F 30.41 in Calm     84% 0.00 in meteobridge W/m2
05:54 26.8 °F 22.6 °F 30.42 in Calm     84% 0.00 in meteobridge W/m2
05:59 26.6 °F 22.5 °F 30.42 in Calm     84% 0.00 in meteobridge W/m2
06:04 26.4 °F 22.5 °F 30.42 in Calm     85% 0.00 in meteobridge W/m2
06:09 26.4 °F 22.5 °F 30.42 in Calm     85% 0.00 in meteobridge W/m2
06:14 26.2 °F 22.3 °F 30.42 in Calm     85% 0.00 in meteobridge W/m2
06:19 26.2 °F 22.3 °F 30.42 in Calm     85% 0.00 in meteobridge W/m2
06:24 26.1 °F 22.5 °F 30.42 in Calm     86% 0.00 in meteobridge W/m2
06:29 26.1 °F 22.5 °F 30.42 in Calm     86% 0.00 in meteobridge W/m2
06:34 26.1 °F 22.5 °F 30.42 in Calm     86% 0.00 in meteobridge W/m2
06:39 26.1 °F 22.5 °F 30.42 in Calm     86% 0.00 in meteobridge W/m2
06:44 25.9 °F 22.3 °F 30.42 in Calm     86% 0.00 in meteobridge W/m2
06:49 26.1 °F 22.5 °F 30.42 in Calm     86% 0.00 in meteobridge W/m2
06:54 26.1 °F 22.5 °F 30.42 in Calm     86% 0.00 in meteobridge W/m2
06:59 25.9 °F 22.5 °F 30.42 in Calm     87% 0.00 in meteobridge W/m2
07:04 25.9 °F 22.5 °F 30.42 in Calm     87% 0.00 in meteobridge W/m2
07:09 25.9 °F 22.5 °F 30.42 in Calm     87% 0.00 in meteobridge W/m2
07:14 25.9 °F 22.5 °F 30.43 in Calm     87% 0.00 in meteobridge W/m2
07:19 25.9 °F 22.5 °F 30.43 in Calm     87% 0.00 in meteobridge W/m2
07:24 25.9 °F 22.5 °F 30.43 in Calm     87% 0.00 in meteobridge W/m2
07:29 25.9 °F 22.5 °F 30.42 in Calm     87% 0.00 in meteobridge W/m2
07:34 25.7 °F 22.5 °F 30.43 in Calm     87% 0.00 in meteobridge W/m2
07:39 25.5 °F 22.3 °F 30.43 in Calm     87% 0.00 in meteobridge W/m2
07:44 25.5 °F 22.3 °F 30.43 in Calm     87% 0.00 in meteobridge W/m2
07:49 25.5 °F 22.3 °F 30.42 in Calm     87% 0.00 in meteobridge W/m2
07:54 25.5 °F 22.3 °F 30.42 in Calm     87% 0.00 in meteobridge W/m2
07:59 25.5 °F 22.3 °F 30.42 in Calm     87% 0.00 in meteobridge W/m2
08:04 25.5 °F 22.5 °F 30.43 in Calm     88% 0.00 in meteobridge W/m2
08:09 25.5 °F 22.5 °F 30.42 in Calm     88% 0.00 in meteobridge W/m2
08:14 25.5 °F 22.3 °F 30.43 in Calm     87% 0.00 in meteobridge W/m2
08:19 25.7 °F 22.6 °F 30.43 in Calm     88% 0.00 in meteobridge W/m2
08:24 26.1 °F 22.6 °F 30.43 in Calm     87% 0.00 in meteobridge W/m2
08:29 26.1 °F 23.0 °F 30.43 in Calm     88% 0.00 in meteobridge W/m2
08:34 26.2 °F 23.2 °F 30.43 in Calm     88% 0.00 in meteobridge W/m2
08:39 26.6 °F 23.5 °F 30.44 in Calm     88% 0.00 in meteobridge W/m2
08:44 26.8 °F 23.7 °F 30.44 in Calm     88% 0.00 in meteobridge W/m2
08:49 27.1 °F 24.1 °F 30.44 in Calm     88% 0.00 in meteobridge W/m2
08:54 27.5 °F 24.4 °F 30.44 in Calm     88% 0.00 in meteobridge W/m2
08:59 27.9 °F 24.8 °F 30.44 in Calm     88% 0.00 in meteobridge W/m2
09:04 28.2 °F 24.6 °F 30.44 in Calm     86% 0.00 in meteobridge W/m2
09:09 28.6 °F 25.2 °F 30.44 in Calm     87% 0.00 in meteobridge W/m2
09:14 29.1 °F 25.5 °F 30.44 in Calm     86% 0.00 in meteobridge W/m2
09:19 29.5 °F 25.9 °F 30.44 in Calm     86% 0.00 in meteobridge W/m2
09:24 29.8 °F 26.2 °F 30.44 in Calm     86% 0.00 in meteobridge W/m2
09:29 30.6 °F 27.0 °F 30.45 in Calm     86% 0.00 in meteobridge W/m2
09:34 31.5 °F 27.0 °F 30.45 in Calm     83% 0.00 in meteobridge W/m2
09:39 32.5 °F 28.0 °F 30.45 in Calm     83% 0.00 in meteobridge W/m2
09:44 33.4 °F 28.6 °F 30.44 in Calm     82% 0.00 in meteobridge W/m2
09:49 34.3 °F 29.5 °F 30.45 in Calm     82% 0.00 in meteobridge W/m2
09:54 35.2 °F 28.8 °F 30.45 in Calm     77% 0.00 in meteobridge W/m2
09:59 36.3 °F 27.9 °F 30.45 in Calm     71% 0.00 in meteobridge W/m2
10:04 37.6 °F 30.7 °F 30.45 in Calm     76% 0.00 in meteobridge W/m2
10:09 38.7 °F 28.6 °F 30.45 in Calm     67% 0.00 in meteobridge W/m2
10:14 40.3 °F 28.2 °F 30.45 in Calm     62% 0.00 in meteobridge W/m2
10:19 41.4 °F 28.6 °F 30.45 in Calm     60% 0.00 in meteobridge W/m2
10:24 42.4 °F 27.9 °F 30.45 in Calm     56% 0.00 in meteobridge W/m2
10:29 43.3 °F 28.2 °F 30.45 in Calm     55% 0.00 in meteobridge W/m2
10:33 44.1 °F 28.9 °F 30.45 in Calm     55% 0.00 in meteobridge W/m2
10:39 45.1 °F 30.7 °F 30.45 in Calm     57% 0.00 in meteobridge W/m2
10:44 45.9 °F 25.2 °F 30.45 in NNE 2.0 mph 2.0 mph 44% 0.00 in meteobridge W/m2
10:49 46.6 °F 25.3 °F 30.45 in Calm     43% 0.00 in meteobridge W/m2
10:54 47.8 °F 24.6 °F 30.45 in Calm   2.0 mph 40% 0.00 in meteobridge W/m2
10:59 48.6 °F 25.3 °F 30.45 in Calm     40% 0.00 in meteobridge W/m2
11:04 48.9 °F 24.4 °F 30.45 in Calm   2.0 mph 38% 0.00 in meteobridge W/m2
11:09 49.3 °F 24.1 °F 30.44 in Calm     37% 0.00 in meteobridge W/m2
11:14 49.3 °F 22.1 °F 30.44 in Calm   1.0 mph 34% 0.00 in meteobridge W/m2
11:19 49.5 °F 23.5 °F 30.44 in East 0.9 mph 1.0 mph 36% 0.00 in meteobridge W/m2
11:24 49.8 °F 23.2 °F 30.45 in Calm   4.0 mph 35% 0.00 in meteobridge W/m2
11:29 50.0 °F 23.4 °F 30.44 in WNW 0.9 mph 2.0 mph 35% 0.00 in meteobridge W/m2
11:34 50.2 °F 21.4 °F 30.44 in Calm     32% 0.00 in meteobridge W/m2
11:39 50.4 °F 23.7 °F 30.44 in Calm   4.0 mph 35% 0.00 in meteobridge W/m2
11:44 50.7 °F 21.9 °F 30.44 in Calm   1.0 mph 32% 0.00 in meteobridge W/m2
11:49 50.9 °F 21.4 °F 30.43 in Calm   4.0 mph 31% 0.00 in meteobridge W/m2
11:54 51.3 °F 21.6 °F 30.43 in Calm   1.0 mph 31% 0.00 in meteobridge W/m2
11:59 51.4 °F 21.7 °F 30.43 in WNW 0.9 mph 1.0 mph 31% 0.00 in meteobridge W/m2
12:04 52.0 °F 24.4 °F 30.43 in Calm   2.0 mph 34% 0.00 in meteobridge W/m2
12:09 52.2 °F 22.5 °F 30.42 in ENE 2.9 mph 3.0 mph 31% 0.00 in meteobridge W/m2
12:14 52.5 °F 23.5 °F 30.42 in Calm     32% 0.00 in meteobridge W/m2
12:19 52.9 °F 22.3 °F 30.42 in Calm   1.0 mph 30% 0.00 in meteobridge W/m2
12:24 52.9 °F 22.3 °F 30.42 in Calm     30% 0.00 in meteobridge W/m2
12:29 52.9 °F 22.3 °F 30.41 in NNE 0.9 mph 3.0 mph 30% 0.00 in meteobridge W/m2
12:34 52.7 °F 20.5 °F 30.41 in NE 0.9 mph 4.0 mph 28% 0.00 in meteobridge W/m2
12:39 52.5 °F 21.9 °F 30.41 in Calm     30% 0.00 in meteobridge W/m2
12:44 52.3 °F 21.7 °F 30.40 in Calm   1.0 mph 30% 0.00 in meteobridge W/m2
12:49 52.2 °F 22.5 °F 30.40 in Calm     31% 0.00 in meteobridge W/m2
12:54 52.3 °F 22.6 °F 30.40 in Calm     31% 0.00 in meteobridge W/m2
12:59 52.7 °F 20.5 °F 30.40 in Calm   1.0 mph 28% 0.00 in meteobridge W/m2
13:04 53.1 °F 20.8 °F 30.40 in Calm     28% 0.00 in meteobridge W/m2
13:09 53.2 °F 22.6 °F 30.39 in ENE 2.0 mph 3.0 mph 30% 0.00 in meteobridge W/m2
13:14 53.4 °F 21.9 °F 30.39 in Calm   2.0 mph 29% 0.00 in meteobridge W/m2
13:19 53.4 °F 20.3 °F 30.38 in Calm   2.0 mph 27% 0.00 in meteobridge W/m2
13:24 53.4 °F 22.8 °F 30.38 in Calm   1.0 mph 30% 0.00 in meteobridge W/m2
13:29 53.8 °F 21.4 °F 30.38 in Calm   2.0 mph 28% 0.00 in meteobridge W/m2
13:34 53.6 °F 22.1 °F 30.38 in Calm     29% 0.00 in meteobridge W/m2
13:39 53.8 °F 21.4 °F 30.37 in ENE 0.9 mph 3.0 mph 28% 0.00 in meteobridge W/m2
13:44 53.8 °F 20.7 °F 30.37 in Calm   2.0 mph 27% 0.00 in meteobridge W/m2
13:49 53.8 °F 21.4 °F 30.37 in Calm     28% 0.00 in meteobridge W/m2
13:54 54.0 °F 21.6 °F 30.37 in Calm   1.0 mph 28% 0.00 in meteobridge W/m2
13:59 54.3 °F 20.1 °F 30.37 in Calm   1.0 mph 26% 0.00 in meteobridge W/m2
14:04 54.9 °F 21.6 °F 30.36 in Calm   1.0 mph 27% 0.00 in meteobridge W/m2
14:09 55.0 °F 21.7 °F 30.36 in East 2.0 mph 2.0 mph 27% 0.00 in meteobridge W/m2
14:14 55.6 °F 23.9 °F 30.36 in Calm   1.0 mph 29% 0.00 in meteobridge W/m2
14:19 55.8 °F 23.2 °F 30.36 in Calm   2.0 mph 28% 0.00 in meteobridge W/m2
14:24 55.9 °F 22.5 °F 30.36 in Calm   1.0 mph 27% 0.00 in meteobridge W/m2
14:29 56.1 °F 21.7 °F 30.36 in Calm   1.0 mph 26% 0.00 in meteobridge W/m2
14:34 56.5 °F 21.9 °F 30.36 in Calm   1.0 mph 26% 0.00 in meteobridge W/m2
14:39 56.8 °F 24.1 °F 30.35 in SE 4.0 mph 4.0 mph 28% 0.00 in meteobridge W/m2
14:43 57.0 °F 25.0 °F 30.35 in Calm     29% 0.00 in meteobridge W/m2
14:49 57.0 °F 25.0 °F 30.35 in Calm   1.0 mph 29% 0.00 in meteobridge W/m2
14:54 56.8 °F 23.2 °F 30.35 in NE 0.9 mph 1.0 mph 27% 0.00 in meteobridge W/m2
14:59 57.0 °F 23.4 °F 30.35 in Calm   1.0 mph 27% 0.00 in meteobridge W/m2
15:04 57.4 °F 25.3 °F 30.35 in Calm     29% 0.00 in meteobridge W/m2
15:09 57.6 °F 24.6 °F 30.35 in Calm   1.0 mph 28% 0.00 in meteobridge W/m2
15:14 57.7 °F 23.0 °F 30.35 in Calm   1.0 mph 26% 0.00 in meteobridge W/m2
15:19 57.7 °F 24.8 °F 30.35 in Calm   3.0 mph 28% 0.00 in meteobridge W/m2
15:24 57.6 °F 24.6 °F 30.35 in Calm     28% 0.00 in meteobridge W/m2
15:29 57.6 °F 23.9 °F 30.35 in Calm   4.0 mph 27% 0.00 in meteobridge W/m2
15:34 57.6 °F 23.9 °F 30.35 in Calm   1.0 mph 27% 0.00 in meteobridge W/m2
15:39 57.6 °F 25.5 °F 30.35 in Calm   1.0 mph 29% 0.00 in meteobridge W/m2
15:44 57.6 °F 24.6 °F 30.34 in Calm   2.0 mph 28% 0.00 in meteobridge W/m2
15:49 57.6 °F 24.6 °F 30.35 in Calm     28% 0.00 in meteobridge W/m2
15:54 57.6 °F 25.5 °F 30.35 in ENE 0.9 mph 1.0 mph 29% 0.00 in meteobridge W/m2
15:59 57.6 °F 25.5 °F 30.35 in Calm   1.0 mph 29% 0.00 in meteobridge W/m2
16:04 57.4 °F 24.6 °F 30.35 in Calm     28% 0.00 in meteobridge W/m2
16:09 57.2 °F 26.1 °F 30.35 in Calm   1.0 mph 30% 0.00 in meteobridge W/m2
16:14 56.8 °F 25.7 °F 30.35 in Calm     30% 0.00 in meteobridge W/m2
16:19 56.5 °F 27.7 °F 30.35 in NW 0.9 mph 1.0 mph 33% 0.00 in meteobridge W/m2
16:24 56.1 °F 27.3 °F 30.36 in Calm     33% 0.00 in meteobridge W/m2
16:29 55.9 °F 25.7 °F 30.36 in Calm   1.0 mph 31% 0.00 in meteobridge W/m2
16:34 55.8 °F 26.4 °F 30.36 in Calm   1.0 mph 32% 0.00 in meteobridge W/m2
16:39 55.8 °F 26.4 °F 30.36 in Calm     32% 0.00 in meteobridge W/m2
16:44 55.8 °F 24.8 °F 30.36 in Calm   1.0 mph 30% 0.00 in meteobridge W/m2
16:49 55.8 °F 27.1 °F 30.36 in Calm   1.0 mph 33% 0.00 in meteobridge W/m2
16:54 55.6 °F 26.2 °F 30.36 in Calm     32% 0.00 in meteobridge W/m2
16:59 55.6 °F 27.0 °F 30.36 in Calm   1.0 mph 33% 0.00 in meteobridge W/m2
17:04 55.0 °F 25.7 °F 30.36 in Calm     32% 0.00 in meteobridge W/m2
17:09 54.7 °F 27.5 °F 30.36 in Calm     35% 0.00 in meteobridge W/m2
17:14 54.1 °F 27.7 °F 30.36 in Calm     36% 0.00 in meteobridge W/m2
17:19 54.0 °F 26.2 °F 30.36 in Calm     34% 0.00 in meteobridge W/m2
17:24 53.6 °F 26.6 °F 30.37 in Calm     35% 0.00 in meteobridge W/m2
17:29 53.4 °F 27.1 °F 30.37 in Calm     36% 0.00 in meteobridge W/m2
17:34 53.1 °F 26.8 °F 30.37 in Calm     36% 0.00 in meteobridge W/m2
17:39 52.9 °F 26.6 °F 30.37 in Calm     36% 0.00 in meteobridge W/m2
17:44 52.5 °F 26.2 °F 30.37 in Calm     36% 0.00 in meteobridge W/m2
17:49 52.3 °F 26.2 °F 30.37 in Calm     36% 0.00 in meteobridge W/m2
17:54 52.2 °F 26.6 °F 30.37 in Calm     37% 0.00 in meteobridge W/m2
17:59 52.0 °F 26.6 °F 30.37 in Calm     37% 0.00 in meteobridge W/m2
18:03 51.8 °F 27.0 °F 30.37 in Calm     38% 0.00 in meteobridge W/m2
18:09 51.4 °F 26.6 °F 30.37 in Calm     38% 0.00 in meteobridge W/m2
18:14 51.3 °F 27.1 °F 30.37 in Calm     39% 0.00 in meteobridge W/m2
18:19 51.1 °F 27.7 °F 30.37 in Calm     40% 0.00 in meteobridge W/m2
18:24 50.7 °F 28.4 °F 30.37 in Calm     42% 0.00 in meteobridge W/m2
18:29 50.4 °F 29.3 °F 30.37 in Calm     44% 0.00 in meteobridge W/m2
18:34 50.0 °F 28.4 °F 30.37 in Calm     43% 0.00 in meteobridge W/m2
18:39 49.6 °F 28.6 °F 30.37 in Calm     44% 0.00 in meteobridge W/m2
18:44 49.5 °F 28.4 °F 30.37 in Calm     44% 0.00 in meteobridge W/m2
18:49 49.3 °F 29.8 °F 30.37 in Calm     47% 0.00 in meteobridge W/m2
18:54 48.9 °F 29.7 °F 30.37 in Calm     47% 0.00 in meteobridge W/m2
18:59 48.7 °F 29.5 °F 30.37 in Calm     47% 0.00 in meteobridge W/m2
19:04 48.6 °F 29.8 °F 30.37 in Calm     48% 0.00 in meteobridge W/m2
19:09 48.2 °F 30.4 °F 30.37 in Calm     50% 0.00 in meteobridge W/m2
19:14 47.8 °F 30.6 °F 30.37 in Calm     51% 0.00 in meteobridge W/m2
19:19 47.5 °F 29.3 °F 30.37 in Calm     49% 0.00 in meteobridge W/m2
19:24 47.3 °F 30.0 °F 30.37 in Calm     51% 0.00 in meteobridge W/m2
19:29 46.9 °F 29.3 °F 30.37 in Calm     50% 0.00 in meteobridge W/m2
19:34 46.6 °F 28.9 °F 30.37 in Calm     50% 0.00 in meteobridge W/m2
19:39 46.0 °F 28.9 °F 30.37 in Calm     51% 0.00 in meteobridge W/m2
19:44 45.7 °F 28.0 °F 30.37 in Calm     50% 0.00 in meteobridge W/m2
19:48 45.3 °F 28.2 °F 30.37 in Calm     51% 0.00 in meteobridge W/m2
19:54 44.8 °F 27.7 °F 30.37 in Calm     51% 0.00 in meteobridge W/m2
19:59 44.4 °F 28.4 °F 30.37 in Calm     53% 0.00 in meteobridge W/m2
20:04 43.9 °F 27.3 °F 30.38 in Calm     52% 0.00 in meteobridge W/m2
20:09 43.3 °F 28.2 °F 30.38 in Calm     55% 0.00 in meteobridge W/m2
20:14 42.8 °F 28.6 °F 30.38 in Calm     57% 0.00 in meteobridge W/m2
20:19 42.4 °F 28.2 °F 30.38 in Calm     57% 0.00 in meteobridge W/m2
20:24 42.1 °F 28.4 °F 30.38 in Calm     58% 0.00 in meteobridge W/m2
20:29 41.7 °F 28.4 °F 30.38 in Calm     59% 0.00 in meteobridge W/m2
20:34 41.5 °F 28.2 °F 30.38 in Calm     59% 0.00 in meteobridge W/m2
20:39 41.2 °F 27.9 °F 30.38 in Calm     59% 0.00 in meteobridge W/m2
20:44 40.6 °F 27.9 °F 30.38 in Calm     60% 0.00 in meteobridge W/m2
20:49 40.3 °F 28.2 °F 30.38 in Calm     62% 0.00 in meteobridge W/m2
20:54 39.9 °F 28.4 °F 30.38 in Calm     63% 0.00 in meteobridge W/m2
20:59 39.6 °F 28.8 °F 30.39 in Calm     65% 0.00 in meteobridge W/m2
21:04 39.0 °F 28.2 °F 30.38 in Calm     65% 0.00 in meteobridge W/m2
21:09 38.8 °F 28.8 °F 30.38 in Calm     67% 0.00 in meteobridge W/m2
21:14 38.5 °F 28.8 °F 30.38 in Calm     68% 0.00 in meteobridge W/m2
21:19 38.1 °F 28.6 °F 30.38 in Calm     68% 0.00 in meteobridge W/m2
21:24 37.9 °F 28.4 °F 30.38 in Calm     68% 0.00 in meteobridge W/m2
21:29 37.8 °F 28.6 °F 30.38 in Calm     69% 0.00 in meteobridge W/m2
21:34 37.6 °F 28.4 °F 30.38 in Calm     69% 0.00 in meteobridge W/m2
21:39 37.0 °F 27.9 °F 30.38 in Calm     69% 0.00 in meteobridge W/m2
21:44 37.0 °F 28.2 °F 30.38 in Calm     70% 0.00 in meteobridge W/m2
21:49 36.9 °F 28.8 °F 30.38 in Calm     72% 0.00 in meteobridge W/m2
21:54 36.7 °F 28.2 °F 30.38 in Calm     71% 0.00 in meteobridge W/m2
21:59 36.7 °F 28.2 °F 30.38 in Calm     71% 0.00 in meteobridge W/m2
22:04 36.3 °F 28.2 °F 30.38 in Calm     72% 0.00 in meteobridge W/m2
22:09 36.3 °F 28.6 °F 30.38 in Calm     73% 0.00 in meteobridge W/m2
22:13 36.3 °F 28.6 °F 30.38 in Calm     73% 0.00 in meteobridge W/m2
22:19 36.1 °F 28.6 °F 30.38 in Calm     74% 0.00 in meteobridge W/m2
22:24 36.1 °F 28.4 °F 30.39 in Calm     73% 0.00 in meteobridge W/m2
22:29 36.1 °F 28.6 °F 30.39 in Calm     74% 0.00 in meteobridge W/m2
22:34 36.1 °F 28.6 °F 30.39 in Calm     74% 0.00 in meteobridge W/m2
22:39 36.1 °F 28.6 °F 30.39 in Calm     74% 0.00 in meteobridge W/m2
22:44 36.0 °F 28.4 °F 30.39 in Calm     74% 0.00 in meteobridge W/m2
22:49 35.8 °F 28.6 °F 30.38 in Calm     75% 0.00 in meteobridge W/m2
22:54 35.8 °F 28.6 °F 30.38 in Calm     75% 0.00 in meteobridge W/m2
22:59 35.4 °F 28.2 °F 30.38 in Calm     75% 0.00 in meteobridge W/m2
23:04 35.2 °F 28.0 °F 30.38 in Calm     75% 0.00 in meteobridge W/m2
23:08 35.2 °F 28.0 °F 30.38 in Calm     75% 0.00 in meteobridge W/m2
23:14 35.1 °F 27.9 °F 30.38 in Calm     75% 0.00 in meteobridge W/m2
23:19 34.9 °F 27.7 °F 30.38 in Calm     75% 0.00 in meteobridge W/m2
23:24 34.9 °F 28.0 °F 30.38 in Calm     76% 0.00 in meteobridge W/m2
23:29 34.5 °F 28.0 °F 30.38 in Calm     77% 0.00 in meteobridge W/m2
23:34 34.5 °F 27.7 °F 30.38 in Calm     76% 0.00 in meteobridge W/m2
23:39 34.3 °F 27.5 °F 30.38 in Calm     76% 0.00 in meteobridge W/m2
23:44 34.2 °F 27.7 °F 30.38 in Calm     77% 0.00 in meteobridge W/m2
23:49 33.8 °F 27.3 °F 30.38 in Calm     77% 0.00 in meteobridge W/m2
23:54 33.4 °F 27.3 °F 30.38 in Calm     78% 0.00 in meteobridge W/m2
23:59 33.3 °F 27.1 °F 30.38 in Calm     78% 0.00 in meteobridge W/m2
EllijayWeather
Compliments of Weather Underground - 2.5 mb